createdAt,value
2019-01-10T00:02:11.635Z,-0.06
2019-01-10T00:07:14.867Z,-0.03
2019-01-10T00:12:18.113Z,-0.06
2019-01-10T00:17:21.324Z,-0.13
2019-01-10T00:22:24.715Z,-0.08
2019-01-10T00:27:27.938Z,-0.08
2019-01-10T00:32:31.232Z,-0.04
2019-01-10T00:37:34.440Z,-0.04
2019-01-10T00:42:37.639Z,0.02
2019-01-10T00:47:40.882Z,0.03
2019-01-10T00:52:44.101Z,0.01
2019-01-10T00:57:47.370Z,0.01
2019-01-10T01:02:50.595Z,0.04
2019-01-10T01:07:53.813Z,0.01
2019-01-10T01:12:58.788Z,-0.01
2019-01-10T01:18:00.411Z,-0.04
2019-01-10T01:23:03.653Z,-0.04
2019-01-10T01:28:08.565Z,0.04
2019-01-10T01:33:11.889Z,-0.02
2019-01-10T01:38:15.104Z,0.00
2019-01-10T01:43:18.400Z,0.01
2019-01-10T01:48:21.643Z,-0.01
2019-01-10T01:53:24.861Z,0.00
2019-01-10T01:58:28.258Z,-0.03
2019-01-10T02:03:31.466Z,-0.04
2019-01-10T02:08:34.764Z,-0.06
2019-01-10T02:13:37.997Z,-0.03
2019-01-10T02:18:41.229Z,-0.01
2019-01-10T02:23:44.440Z,-0.04
2019-01-10T02:28:47.665Z,-0.04
2019-01-10T02:33:51.016Z,0.00
2019-01-10T02:38:54.248Z,-0.03
2019-01-10T02:43:57.485Z,-0.01
2019-01-10T02:49:00.868Z,-0.01
2019-01-10T02:54:04.083Z,0.04
2019-01-10T02:59:07.368Z,0.09
2019-01-10T03:04:10.608Z,0.03
2019-01-10T03:09:13.941Z,0.03
2019-01-10T03:14:17.135Z,0.12
2019-01-10T03:19:20.347Z,0.09
2019-01-10T03:24:23.679Z,0.07
2019-01-10T03:29:26.886Z,0.06
2019-01-10T03:34:30.086Z,0.11
2019-01-10T03:39:33.297Z,0.18
2019-01-10T03:44:36.530Z,0.22
2019-01-10T03:49:39.944Z,0.22
2019-01-10T03:54:43.325Z,0.20
2019-01-10T03:59:46.536Z,0.21
2019-01-10T04:04:49.870Z,0.22
2019-01-10T04:09:53.287Z,0.15
2019-01-10T04:14:56.495Z,0.10
2019-01-10T04:19:59.823Z,0.12
2019-01-10T04:25:03.244Z,0.15
2019-01-10T04:30:08.459Z,0.21
2019-01-10T04:35:11.693Z,0.22
2019-01-10T04:40:17.174Z,0.22
2019-01-10T04:45:20.379Z,0.24
2019-01-10T04:50:23.640Z,0.22
2019-01-10T04:55:26.952Z,0.25
2019-01-10T05:00:30.202Z,0.26
2019-01-10T05:05:33.496Z,0.23
2019-01-10T05:10:36.695Z,0.24
2019-01-10T05:15:40.007Z,0.24
2019-01-10T05:20:43.216Z,0.25
2019-01-10T05:25:46.442Z,0.25
2019-01-10T05:30:49.645Z,0.26
2019-01-10T05:35:52.948Z,0.27
2019-01-10T05:40:56.162Z,0.27
2019-01-10T05:45:59.363Z,0.27
2019-01-10T05:51:02.674Z,0.30
2019-01-10T05:56:15.046Z,0.24
2019-01-10T06:01:09.418Z,0.28
2019-01-10T06:06:12.643Z,0.27
2019-01-10T06:11:15.860Z,0.32
2019-01-10T06:16:19.172Z,0.36
2019-01-10T06:21:22.392Z,0.35
2019-01-10T06:26:25.595Z,0.35
2019-01-10T06:31:28.828Z,0.36
2019-01-10T06:36:32.219Z,0.36
2019-01-10T06:41:35.526Z,0.33
2019-01-10T06:46:38.783Z,0.32
2019-01-10T06:51:42.083Z,0.37
2019-01-10T06:56:45.359Z,0.36
2019-01-10T07:01:48.668Z,0.35
2019-01-10T07:06:51.945Z,0.36
2019-01-10T07:11:55.331Z,0.38
2019-01-10T07:16:58.746Z,0.38
2019-01-10T07:22:01.974Z,0.36
2019-01-10T07:27:05.378Z,0.39
2019-01-10T07:32:08.815Z,0.40
2019-01-10T07:37:13.049Z,0.41
2019-01-10T07:42:15.508Z,0.48
2019-01-10T07:47:18.799Z,0.52
2019-01-10T07:52:22.050Z,0.58
2019-01-10T07:57:25.321Z,0.64
2019-01-10T08:02:28.683Z,0.69
2019-01-10T08:07:31.911Z,0.75
2019-01-10T08:12:35.185Z,0.78
2019-01-10T08:17:38.427Z,0.82
2019-01-10T08:22:41.659Z,0.89
2019-01-10T08:27:44.987Z,0.83
2019-01-10T08:32:48.207Z,0.79
2019-01-10T08:37:51.420Z,0.76
2019-01-10T08:42:54.757Z,0.71
2019-01-10T08:47:58.069Z,0.70
2019-01-10T08:53:01.416Z,0.68
2019-01-10T08:58:04.675Z,0.62
2019-01-10T09:03:07.895Z,0.59
2019-01-10T09:08:11.306Z,0.63
2019-01-10T09:13:14.621Z,0.63
2019-01-10T09:18:17.988Z,0.70
2019-01-10T09:23:21.429Z,0.68
2019-01-10T09:28:24.646Z,0.71
2019-01-10T09:33:27.966Z,0.72
2019-01-10T09:38:31.391Z,0.77
2019-01-10T09:43:34.857Z,0.84
2019-01-10T09:48:38.266Z,0.80
2019-01-10T09:53:41.562Z,0.84
2019-01-10T09:58:45.091Z,0.89
2019-01-10T10:03:48.423Z,0.92
2019-01-10T10:08:51.852Z,0.96
2019-01-10T10:13:55.301Z,1.05
2019-01-10T10:18:58.683Z,1.13
2019-01-10T10:24:01.937Z,1.12
2019-01-10T10:29:05.385Z,1.16
2019-01-10T10:34:08.605Z,1.24
2019-01-10T10:39:11.944Z,1.44
2019-01-10T10:44:15.377Z,1.39
2019-01-10T10:49:18.644Z,1.30
2019-01-10T10:54:22.043Z,1.40
2019-01-10T10:59:25.235Z,1.55
2019-01-10T11:04:28.522Z,1.52
2019-01-10T11:09:31.813Z,1.73
2019-01-10T11:14:35.061Z,1.73
2019-01-10T11:19:39.367Z,1.67
2019-01-10T11:24:42.829Z,1.27
2019-01-10T11:29:46.155Z,1.54
2019-01-10T11:34:49.484Z,1.56
2019-01-10T11:39:52.820Z,1.42
2019-01-10T11:44:56.040Z,1.42
2019-01-10T11:49:59.271Z,1.52
2019-01-10T11:55:02.487Z,1.52
2019-01-10T12:00:10.407Z,1.59
2019-01-10T12:05:12.038Z,1.70
2019-01-10T12:10:15.424Z,1.74
2019-01-10T12:15:18.653Z,2.00
2019-01-10T12:20:21.902Z,2.17
2019-01-10T12:25:25.272Z,2.34
2019-01-10T12:30:28.511Z,2.29
2019-01-10T12:35:31.936Z,2.28
2019-01-10T12:40:35.143Z,2.97
2019-01-10T12:45:38.438Z,2.91
2019-01-10T12:50:41.699Z,2.50
2019-01-10T12:55:45.055Z,2.61
2019-01-10T13:00:48.327Z,2.16
2019-01-10T13:05:51.670Z,2.00
2019-01-10T13:10:54.965Z,2.71
2019-01-10T13:15:58.282Z,2.19
2019-01-10T13:21:01.617Z,1.93
2019-01-10T13:26:04.912Z,1.94
2019-01-10T13:31:08.326Z,1.67
2019-01-10T13:36:11.727Z,1.45
2019-01-10T13:41:15.048Z,1.49
2019-01-10T13:46:18.518Z,1.29
2019-01-10T13:51:21.936Z,1.16
2019-01-10T13:56:25.279Z,1.00
2019-01-10T14:01:28.515Z,0.80
2019-01-10T14:06:31.792Z,0.75
2019-01-10T14:11:35.186Z,0.80
2019-01-10T14:16:38.554Z,0.67
2019-01-10T14:21:46.562Z,0.60
2019-01-10T14:26:45.393Z,0.53
2019-01-10T14:31:49.147Z,0.39
2019-01-10T14:36:52.625Z,0.27
2019-01-10T14:41:55.984Z,0.26
2019-01-10T14:46:59.281Z,0.24
2019-01-10T14:52:02.749Z,0.16
2019-01-10T14:57:06.084Z,0.10
2019-01-10T15:02:09.571Z,0.04
2019-01-10T15:07:12.616Z,-0.04
2019-01-10T15:12:15.988Z,-0.15
2019-01-10T15:17:19.224Z,-0.19
2019-01-10T15:22:22.679Z,-0.21
2019-01-10T15:27:25.986Z,-0.25
2019-01-10T15:32:29.291Z,-0.27
2019-01-10T15:37:32.644Z,-0.34
2019-01-10T15:42:35.959Z,-0.37
2019-01-10T15:47:39.250Z,-0.41
2019-01-10T15:52:42.597Z,-0.48
2019-01-10T15:57:45.991Z,-0.46
2019-01-10T16:02:49.317Z,-0.54
2019-01-10T16:07:52.765Z,-0.62
2019-01-10T16:12:56.104Z,-0.60
2019-01-10T16:17:59.394Z,-0.67
2019-01-10T16:23:02.751Z,-0.70
2019-01-10T16:28:06.065Z,-0.79
2019-01-10T16:33:11.446Z,-0.82
2019-01-10T16:38:14.793Z,-0.86
2019-01-10T16:43:18.175Z,-0.92
2019-01-10T16:48:21.530Z,-0.97
2019-01-10T16:53:24.980Z,-1.00
2019-01-10T16:58:28.303Z,-1.07
2019-01-10T17:03:31.672Z,-1.07
2019-01-10T17:08:35.083Z,-1.13
2019-01-10T17:13:38.438Z,-1.15
2019-01-10T17:18:41.887Z,-1.22
2019-01-10T17:23:45.552Z,-1.29
2019-01-10T17:28:48.560Z,-1.36
2019-01-10T17:33:51.920Z,-1.45
2019-01-10T17:38:55.267Z,-1.44
2019-01-10T17:43:58.655Z,-1.61
2019-01-10T17:49:02.018Z,-1.58
2019-01-10T17:54:05.383Z,-1.68
2019-01-10T17:59:08.787Z,-1.72
2019-01-10T18:04:12.214Z,-1.75
2019-01-10T18:09:15.570Z,-1.81
2019-01-10T18:14:18.936Z,-1.89
2019-01-10T18:19:22.271Z,-1.94
2019-01-10T18:24:25.654Z,-1.92
2019-01-10T18:29:32.869Z,-1.89
2019-01-10T18:34:32.581Z,-1.98
2019-01-10T18:39:36.019Z,-1.99
2019-01-10T18:44:39.371Z,-1.97
2019-01-10T18:49:44.024Z,-2.02
2019-01-10T18:54:46.488Z,-1.95
2019-01-10T18:59:50.015Z,-1.79
2019-01-10T19:04:53.390Z,-1.74
2019-01-10T19:09:56.753Z,-1.66
2019-01-10T19:15:00.231Z,-1.53
2019-01-10T19:20:03.544Z,-1.53
2019-01-10T19:25:07.206Z,-1.54
2019-01-10T19:30:13.487Z,-1.60
2019-01-10T19:35:16.807Z,-1.52
2019-01-10T19:40:20.430Z,-1.63
2019-01-10T19:45:23.930Z,-1.57
2019-01-10T19:50:27.549Z,-1.64
2019-01-10T19:55:30.900Z,-1.62
2019-01-10T20:00:37.995Z,-1.62
2019-01-10T20:05:41.319Z,-1.59
2019-01-10T20:10:44.835Z,-1.63
2019-01-10T20:15:48.183Z,-1.67
2019-01-10T20:20:51.719Z,-1.71
2019-01-10T20:25:55.068Z,-1.74
2019-01-10T20:30:58.407Z,-1.83
2019-01-10T20:36:01.907Z,-1.89
2019-01-10T20:41:05.263Z,-1.93
2019-01-10T20:46:08.648Z,-1.93
2019-01-10T20:51:11.963Z,-1.93
2019-01-10T20:56:15.316Z,-1.91
2019-01-10T21:01:18.892Z,-1.93
2019-01-10T21:06:22.231Z,-1.98
2019-01-10T21:11:25.550Z,-2.08
2019-01-10T21:16:29.013Z,-2.20
2019-01-10T21:21:32.366Z,-2.29
2019-01-10T21:26:35.692Z,-2.40
2019-01-10T21:31:38.957Z,-2.46
2019-01-10T21:36:42.320Z,-2.54
2019-01-10T21:41:45.655Z,-2.58
2019-01-10T21:46:48.934Z,-2.62
2019-01-10T21:51:52.259Z,-2.62
2019-01-10T21:56:55.591Z,-2.64
2019-01-10T22:01:58.903Z,-2.67
2019-01-10T22:07:02.203Z,-2.73
2019-01-10T22:12:05.690Z,-2.72
2019-01-10T22:17:08.943Z,-2.83
2019-01-10T22:22:12.219Z,-2.85
2019-01-10T22:27:15.467Z,-2.77
2019-01-10T22:32:18.718Z,-2.78
2019-01-10T22:37:21.950Z,-2.75
2019-01-10T22:42:25.336Z,-2.76
2019-01-10T22:47:28.571Z,-2.77
2019-01-10T22:52:31.804Z,-2.83
2019-01-10T22:57:35.117Z,-2.94
2019-01-10T23:02:38.377Z,-2.95
2019-01-10T23:07:41.809Z,-2.93
2019-01-10T23:12:45.032Z,-3.01
2019-01-10T23:17:51.499Z,-3.02
2019-01-10T23:23:00.772Z,-3.03
2019-01-10T23:28:04.004Z,-2.92
2019-01-10T23:33:07.364Z,-2.94
2019-01-10T23:38:10.624Z,-2.96
2019-01-10T23:43:13.844Z,-2.86
2019-01-10T23:48:17.091Z,-2.96
2019-01-10T23:53:20.361Z,-3.08
2019-01-10T23:58:23.579Z,-3.07
